Terminal Aerodrome Forecast
Issued by NWS Lake Charles, LA

Home | Current Version | Previous Version | Text Only | Print | Product List | Glossary On
Versions: 1 2 3 4 5 6 7 8 9 10 11 12 13 14 15 16 17 18
000
FTUS44 KLCH 182300
TAFLCH
TAF
KLCH 182320Z 1900/1924 18005KT P6SM VCSH SCT025 OVC050
      TEMPO 1900/1904 3SM RA OVC025
     FM190400 VRB03KT P6SM VCSH SCT025 OVC035
      TEMPO 1910/1914 3SM SHRA OVC025
     FM191400 06005KT P6SM SCT025 OVC035 PROB30 1914/1920 3SM SHRA
      OVC025=

USA.gov is the U.S. government's official web portal to all federal, state and local government web resources and services.